Time;durP1;ratioP1;P1;durP2;ratioP2;P2;SDS_P1;SDS_P2;PMS_P1;PMS_P2;Temp;Humidity;BMP_temperature;BMP_pressure;BME280_temperature;BME280_humidity;BME280_pressure;Samples;Min_cycle;Max_cycle;Signal;HPM_P1;HPM_P2
2021/12/31 00:00:09;;;;;;;;;;;;;;;;;;5100234;28;19912;-91
2021/12/31 00:02:34;;;;;;;;;;;;;;;;;;5100242;28;19962;-81
2021/12/31 00:05:00;;;;;;;;;;;;;;;;;;5100206;28;19912;-85
2021/12/31 00:07:25;;;;;;;;;;;;;;;;;;5100151;28;19920;-81
2021/12/31 00:09:50;;;;;;;;;;;;;;;;;;5100493;28;19916;-82
2021/12/31 00:12:16;;;;;;;;;;;;;;;;;;5100454;28;19912;-82
2021/12/31 00:14:41;;;;;;;;;;;;;;;;;;5100077;28;20296;-81
2021/12/31 00:17:07;;;;;;;;;;;;;;;;;;5100115;28;19942;-90
2021/12/31 00:19:38;;;;;;;;;;;;;;;;;;5100065;28;19916;-82
2021/12/31 00:22:20;;;;;;;;;;;;;;;;;;5100157;28;19944;-81
2021/12/31 00:24:46;;;;;;;;;;;;;;;;;;5100389;28;19920;-89
2021/12/31 00:27:12;;;;;;;;;;;;;;;;;;5100078;28;20010;-82
2021/12/31 00:29:37;;;;;;;;;;;;;;;;;;5096408;28;19916;-82
2021/12/31 00:32:03;;;;;;;;;;;;;;;;;;5096770;28;19916;-89
2021/12/31 00:34:28;;;;;;;;;;;;;;;;;;5096691;28;19922;-83
2021/12/31 00:36:53;;;;;;;;;;;;;;;;;;5096670;28;20394;-84
2021/12/31 00:39:19;;;;;;;;;;;;;;;;;;5096669;28;20290;-90
2021/12/31 00:41:46;;;;;;;;;;;;;;;;;;5096681;28;19916;-87
2021/12/31 00:44:12;;;;;;;;;;;;;;;;;;5096515;28;19916;-86
2021/12/31 00:46:37;;;;;;;;;;;;;;;;;;5096508;28;19996;-86
2021/12/31 00:49:03;;;;;;;;;;;;;;;;;;5096452;28;19923;-88
2021/12/31 00:51:29;;;;;;;;;;;;;;;;;;5096525;28;19963;-89
2021/12/31 00:53:55;;;;;;;;;;;;;;;;;;5096376;28;20322;-82
2021/12/31 00:56:20;;;;;;;;;;;;;;;;;;5096238;28;19920;-86
2021/12/31 00:58:46;;;;;;;;;;;;;;;;;;5096301;28;20003;-82
2021/12/31 01:01:17;;;;;;;;;;;;;;;;;;5096250;28;19919;-83
2021/12/31 01:03:42;;;;;;;;;;;;;;;;;;5096318;28;20006;-82
2021/12/31 01:06:08;;;;;;;;;;;;;;;;;;5096149;28;19955;-81
2021/12/31 01:08:33;;;;;;;;;;;;;;;;;;5077931;28;20452;-81
2021/12/31 01:10:59;;;;;;;;;;;;;;;;;;5096094;28;19916;-91
2021/12/31 01:13:33;;;;;;;;;;;;;;;;;;5095980;28;19912;-84
2021/12/31 01:16:01;;;;;;;;;;;;;;;;;;5096079;28;20379;-90
2021/12/31 01:21:10;;;;;;;;;;;;;;;;;;5096381;28;20325;-81
2021/12/31 01:23:35;;;;;;;;;;;;;;;;;;5095904;28;19924;-83
2021/12/31 01:26:01;;;;;;;;;;;;;;;;;;5095731;28;20010;-86
2021/12/31 01:28:26;;;;;;;;;;;;;;;;;;5096035;28;19916;-81
2021/12/31 01:30:52;;;;;;;;;;;;;;;;;;5095578;28;20316;-82
2021/12/31 01:33:17;;;;;;;;;;;;;;;;;;5095618;28;19916;-81
2021/12/31 01:35:43;;;;;;;;;;;;;;;;;;5095700;28;19924;-87
2021/12/31 01:38:08;;;;;;;;;;;;;;;;;;5095763;28;19916;-85
2021/12/31 01:40:34;;;;;;;;;;;;;;;;;;5094526;28;19912;-83
2021/12/31 01:42:59;;;;;;;;;;;;;;;;;;5095424;28;20264;-83
2021/12/31 01:45:29;;;;;;;;;;;;;;;;;;5096417;28;20427;-81
2021/12/31 01:50:21;;;;;;;;;;;;;;;;;;5095641;28;19916;-89
2021/12/31 01:52:46;;;;;;;;;;;;;;;;;;5095343;28;19912;-81
2021/12/31 01:55:12;;;;;;;;;;;;;;;;;;5094852;28;19916;-82
2021/12/31 01:57:42;;;;;;;;;;;;;;;;;;5095480;28;19920;-81
2021/12/31 02:00:08;;;;;;;;;;;;;;;;;;5095083;28;19998;-84
2021/12/31 02:02:34;;;;;;;;;;;;;;;;;;5095135;28;19916;-82
2021/12/31 02:05:01;;;;;;;;;;;;;;;;;;5095390;28;19916;-82
2021/12/31 02:07:27;;;;;;;;;;;;;;;;;;5094982;28;20451;-82
2021/12/31 02:09:54;;;;;;;;;;;;;;;;;;5076892;28;19920;-86
2021/12/31 02:12:20;;;;;;;;;;;;;;;;;;5094797;28;19923;-82
2021/12/31 02:14:46;;;;;;;;;;;;;;;;;;5094750;28;19942;-83
2021/12/31 02:17:11;;;;;;;;;;;;;;;;;;5094829;28;20264;-81
2021/12/31 02:19:37;;;;;;;;;;;;;;;;;;5094714;28;20332;-89
2021/12/31 02:22:03;;;;;;;;;;;;;;;;;;5094755;28;20294;-83
2021/12/31 02:24:29;;;;;;;;;;;;;;;;;;5094683;28;19916;-81
2021/12/31 02:26:54;;;;;;;;;;;;;;;;;;5094580;28;19917;-81
2021/12/31 02:29:23;;;;;;;;;;;;;;;;;;5094591;28;19916;-88
2021/12/31 02:31:48;;;;;;;;;;;;;;;;;;5094586;28;19916;-84
2021/12/31 02:34:14;;;;;;;;;;;;;;;;;;5094445;28;19939;-83
2021/12/31 02:36:40;;;;;;;;;;;;;;;;;;5094494;28;20315;-82
2021/12/31 02:39:05;;;;;;;;;;;;;;;;;;5094448;28;19930;-82
2021/12/31 02:41:31;;;;;;;;;;;;;;;;;;5094547;28;19916;-90
2021/12/31 02:43:56;;;;;;;;;;;;;;;;;;5094318;28;20006;-81
2021/12/31 02:46:22;;;;;;;;;;;;;;;;;;5094334;28;19969;-81
2021/12/31 02:48:55;;;;;;;;;;;;;;;;;;5094273;28;19916;-82
2021/12/31 02:51:21;;;;;;;;;;;;;;;;;;5075694;28;19920;-82
2021/12/31 02:53:50;;;;;;;;;;;;;;;;;;5094243;28;19917;-82
2021/12/31 02:56:17;;;;;;;;;;;;;;;;;;5093328;28;19939;-91
2021/12/31 02:58:43;;;;;;;;;;;;;;;;;;5093707;28;19946;-82
2021/12/31 03:01:09;;;;;;;;;;;;;;;;;;5094076;28;19934;-82
2021/12/31 03:03:36;;;;;;;;;;;;;;;;;;5075896;28;20360;-84
2021/12/31 03:06:01;;;;;;;;;;;;;;;;;;5075910;28;19916;-92
2021/12/31 03:08:31;;;;;;;;;;;;;;;;;;5093970;28;19916;-81
2021/12/31 03:10:58;;;;;;;;;;;;;;;;;;5094015;28;19939;-91
2021/12/31 03:13:24;;;;;;;;;;;;;;;;;;5093971;28;19923;-81
2021/12/31 03:15:53;;;;;;;;;;;;;;;;;;5093895;28;19916;-91
2021/12/31 03:18:19;;;;;;;;;;;;;;;;;;5093900;28;19924;-84
2021/12/31 03:20:57;;;;;;;;;;;;;;;;;;5093898;28;19916;-83
2021/12/31 03:23:23;;;;;;;;;;;;;;;;;;5093933;28;20379;-81
2021/12/31 03:25:49;;;;;;;;;;;;;;;;;;5093825;28;20014;-89
2021/12/31 03:28:14;;;;;;;;;;;;;;;;;;5075747;28;20339;-81
2021/12/31 03:30:40;;;;;;;;;;;;;;;;;;5093674;28;20444;-91
2021/12/31 03:33:05;;;;;;;;;;;;;;;;;;5093832;28;20019;-89
2021/12/31 03:35:30;;;;;;;;;;;;;;;;;;5093972;28;19916;-82
2021/12/31 03:37:56;;;;;;;;;;;;;;;;;;5075642;28;19955;-82
2021/12/31 03:40:22;;;;;;;;;;;;;;;;;;5093735;28;19923;-82
2021/12/31 03:42:48;;;;;;;;;;;;;;;;;;5093659;28;19917;-88
2021/12/31 03:45:13;;;;;;;;;;;;;;;;;;5093735;28;19923;-82
2021/12/31 03:47:39;;;;;;;;;;;;;;;;;;5093631;28;19916;-90
2021/12/31 03:50:04;;;;;;;;;;;;;;;;;;5093634;28;20376;-83
2021/12/31 03:52:30;;;;;;;;;;;;;;;;;;5093618;28;20345;-81
2021/12/31 03:54:55;;;;;;;;;;;;;;;;;;5093545;28;20028;-81
2021/12/31 03:57:21;;;;;;;;;;;;;;;;;;5093312;28;19916;-82
2021/12/31 03:59:46;;;;;;;;;;;;;;;;;;5093512;28;19916;-83
2021/12/31 04:02:11;;;;;;;;;;;;;;;;;;5075338;28;20292;-81
2021/12/31 04:04:37;;;;;;;;;;;;;;;;;;5096440;28;19923;-81
2021/12/31 04:07:02;;;;;;;;;;;;;;;;;;5079109;28;19924;-90
2021/12/31 04:09:28;;;;;;;;;;;;;;;;;;5097352;28;19930;-84
2021/12/31 04:11:53;;;;;;;;;;;;;;;;;;5079002;28;19916;-84
2021/12/31 04:14:19;;;;;;;;;;;;;;;;;;5097120;28;19916;-89
2021/12/31 04:16:44;;;;;;;;;;;;;;;;;;5097194;28;19917;-82
2021/12/31 04:19:10;;;;;;;;;;;;;;;;;;5097110;28;19923;-82
2021/12/31 04:21:35;;;;;;;;;;;;;;;;;;5097000;28;19924;-81
2021/12/31 04:24:13;;;;;;;;;;;;;;;;;;5096963;28;19969;-83
2021/12/31 04:26:39;;;;;;;;;;;;;;;;;;5096992;28;19917;-91
2021/12/31 04:29:05;;;;;;;;;;;;;;;;;;5078765;28;19941;-82
2021/12/31 04:31:30;;;;;;;;;;;;;;;;;;5097377;28;20290;-82
2021/12/31 04:33:56;;;;;;;;;;;;;;;;;;5096551;28;19920;-87
2021/12/31 04:36:21;;;;;;;;;;;;;;;;;;5096783;28;19923;-82
2021/12/31 04:38:47;;;;;;;;;;;;;;;;;;5096991;28;20007;-82
2021/12/31 04:41:12;;;;;;;;;;;;;;;;;;5096699;28;19924;-82
2021/12/31 04:43:37;;;;;;;;;;;;;;;;;;5096620;28;19963;-82
2021/12/31 04:46:03;;;;;;;;;;;;;;;;;;5096488;28;20007;-91
2021/12/31 04:48:28;;;;;;;;;;;;;;;;;;5096530;28;19982;-82
2021/12/31 04:50:54;;;;;;;;;;;;;;;;;;5096481;28;19916;-81
2021/12/31 04:53:19;;;;;;;;;;;;;;;;;;5096410;28;19923;-82
2021/12/31 04:55:45;;;;;;;;;;;;;;;;;;5096461;28;19920;-91
2021/12/31 04:58:10;;;;;;;;;;;;;;;;;;5096128;28;19931;-84
2021/12/31 05:00:36;;;;;;;;;;;;;;;;;;5096347;28;20011;-89
2021/12/31 05:03:08;;;;;;;;;;;;;;;;;;5096223;28;19965;-81
2021/12/31 05:05:33;;;;;;;;;;;;;;;;;;5096204;28;19998;-83
2021/12/31 05:07:59;;;;;;;;;;;;;;;;;;5096136;28;19951;-82
2021/12/31 05:10:24;;;;;;;;;;;;;;;;;;5096051;28;20363;-82
2021/12/31 05:12:55;;;;;;;;;;;;;;;;;;5096109;28;20018;-83
2021/12/31 05:15:26;;;;;;;;;;;;;;;;;;5095625;28;19922;-90
2021/12/31 05:17:51;;;;;;;;;;;;;;;;;;5096316;28;19917;-91
2021/12/31 05:20:17;;;;;;;;;;;;;;;;;;5095875;28;19912;-81
2021/12/31 05:22:42;;;;;;;;;;;;;;;;;;5095760;28;19923;-82
2021/12/31 05:25:08;;;;;;;;;;;;;;;;;;5095801;28;19916;-82
2021/12/31 05:27:33;;;;;;;;;;;;;;;;;;5088618;28;19912;-82
2021/12/31 05:29:58;;;;;;;;;;;;;;;;;;5095735;28;19924;-90
2021/12/31 05:32:24;;;;;;;;;;;;;;;;;;5095638;28;20407;-81
2021/12/31 05:34:49;;;;;;;;;;;;;;;;;;5095796;28;20013;-81
2021/12/31 05:37:15;;;;;;;;;;;;;;;;;;5095580;28;19946;-82
2021/12/31 05:39:40;;;;;;;;;;;;;;;;;;5095669;28;20261;-86
2021/12/31 05:42:06;;;;;;;;;;;;;;;;;;5095385;28;19927;-86
2021/12/31 05:44:31;;;;;;;;;;;;;;;;;;5095605;28;19920;-83
2021/12/31 05:46:57;;;;;;;;;;;;;;;;;;5095379;28;19955;-82
2021/12/31 05:49:23;;;;;;;;;;;;;;;;;;5095325;28;19916;-84
2021/12/31 05:51:50;;;;;;;;;;;;;;;;;;5095343;28;19912;-83
2021/12/31 05:54:15;;;;;;;;;;;;;;;;;;5095155;28;20008;-82
2021/12/31 05:56:40;;;;;;;;;;;;;;;;;;5095240;28;20425;-85
2021/12/31 05:59:06;;;;;;;;;;;;;;;;;;5094899;28;19963;-83
2021/12/31 06:01:31;;;;;;;;;;;;;;;;;;5095069;28;19981;-81
2021/12/31 06:03:57;;;;;;;;;;;;;;;;;;5095117;28;20358;-84
2021/12/31 06:06:22;;;;;;;;;;;;;;;;;;5094958;28;20282;-83
2021/12/31 06:08:48;;;;;;;;;;;;;;;;;;5094915;28;19916;-82
2021/12/31 06:11:13;;;;;;;;;;;;;;;;;;5094980;28;19912;-83
2021/12/31 06:13:39;;;;;;;;;;;;;;;;;;5095178;28;19979;-82
2021/12/31 06:16:05;;;;;;;;;;;;;;;;;;5095425;28;20027;-89
2021/12/31 06:18:31;;;;;;;;;;;;;;;;;;5094892;28;19962;-84
2021/12/31 06:20:56;;;;;;;;;;;;;;;;;;5094787;28;19923;-81
2021/12/31 06:23:21;;;;;;;;;;;;;;;;;;5094719;28;19916;-89
2021/12/31 06:25:47;;;;;;;;;;;;;;;;;;5093950;28;20056;-83
2021/12/31 06:28:12;;;;;;;;;;;;;;;;;;5094667;28;20386;-91
2021/12/31 06:30:38;;;;;;;;;;;;;;;;;;5094523;28;20310;-83
2021/12/31 06:33:03;;;;;;;;;;;;;;;;;;5094586;28;19916;-82
2021/12/31 06:35:29;;;;;;;;;;;;;;;;;;5094550;28;19923;-82
2021/12/31 06:37:55;;;;;;;;;;;;;;;;;;5094395;28;19922;-81
2021/12/31 06:40:22;;;;;;;;;;;;;;;;;;5094434;28;20371;-82
2021/12/31 06:42:48;;;;;;;;;;;;;;;;;;5094364;28;19923;-82
2021/12/31 06:45:13;;;;;;;;;;;;;;;;;;5094347;28;19920;-90
2021/12/31 06:47:39;;;;;;;;;;;;;;;;;;5094540;28;19916;-85
2021/12/31 06:50:04;;;;;;;;;;;;;;;;;;5094255;28;19961;-83
2021/12/31 06:52:30;;;;;;;;;;;;;;;;;;5094230;28;19970;-82
2021/12/31 06:54:55;;;;;;;;;;;;;;;;;;5094187;28;19920;-82
2021/12/31 06:57:21;;;;;;;;;;;;;;;;;;5093920;28;19916;-90
2021/12/31 06:59:46;;;;;;;;;;;;;;;;;;5092881;28;19920;-82
2021/12/31 07:02:11;;;;;;;;;;;;;;;;;;5094024;28;19974;-87
2021/12/31 07:04:37;;;;;;;;;;;;;;;;;;5094070;28;19916;-91
2021/12/31 07:07:02;;;;;;;;;;;;;;;;;;5094065;28;19923;-82
2021/12/31 07:09:28;;;;;;;;;;;;;;;;;;5094186;28;19939;-85
2021/12/31 07:11:53;;;;;;;;;;;;;;;;;;5094229;28;19916;-86
2021/12/31 07:14:19;;;;;;;;;;;;;;;;;;5093756;28;19920;-88
2021/12/31 07:16:44;;;;;;;;;;;;;;;;;;5093932;28;19916;-81
2021/12/31 07:19:10;;;;;;;;;;;;;;;;;;5094229;28;20383;-86
2021/12/31 07:21:35;;;;;;;;;;;;;;;;;;5093924;28;19943;-89
2021/12/31 07:24:00;;;;;;;;;;;;;;;;;;5093936;28;20010;-81
2021/12/31 07:26:26;;;;;;;;;;;;;;;;;;5094041;28;19958;-92
2021/12/31 07:28:51;;;;;;;;;;;;;;;;;;5094699;28;19950;-83
2021/12/31 07:31:17;;;;;;;;;;;;;;;;;;5093826;28;19947;-82
2021/12/31 07:33:43;;;;;;;;;;;;;;;;;;5092494;28;20277;-83
2021/12/31 07:36:08;;;;;;;;;;;;;;;;;;5093866;28;20346;-92
2021/12/31 07:38:37;;;;;;;;;;;;;;;;;;5096769;28;19923;-89
2021/12/31 07:41:03;;;;;;;;;;;;;;;;;;5097753;28;19923;-84
2021/12/31 07:43:28;;;;;;;;;;;;;;;;;;5098002;28;19916;-83
2021/12/31 07:45:54;;;;;;;;;;;;;;;;;;5097593;28;20364;-86
2021/12/31 07:48:20;;;;;;;;;;;;;;;;;;5097820;28;19916;-87
2021/12/31 07:50:46;;;;;;;;;;;;;;;;;;5097839;28;19920;-84
2021/12/31 07:53:11;;;;;;;;;;;;;;;;;;5097672;28;20007;-83
2021/12/31 07:55:36;;;;;;;;;;;;;;;;;;5096200;28;20283;-85
2021/12/31 07:58:03;;;;;;;;;;;;;;;;;;5086881;28;20295;-84
2021/12/31 08:00:29;;;;;;;;;;;;;;;;;;5090990;28;20294;-85
2021/12/31 08:02:55;;;;;;;;;;;;;;;;;;5097382;28;20011;-84
2021/12/31 08:05:21;;;;;;;;;;;;;;;;;;5097354;28;19916;-86
2021/12/31 08:07:47;;;;;;;;;;;;;;;;;;5097825;28;19962;-85
2021/12/31 08:10:12;;;;;;;;;;;;;;;;;;5097441;28;20017;-85
2021/12/31 08:12:37;;;;;;;;;;;;;;;;;;5097351;28;20288;-83
2021/12/31 08:15:03;;;;;;;;;;;;;;;;;;5097309;28;19924;-86
2021/12/31 08:17:29;;;;;;;;;;;;;;;;;;5097907;28;19916;-85
2021/12/31 08:19:54;;;;;;;;;;;;;;;;;;5095899;28;19916;-83
2021/12/31 08:22:21;;;;;;;;;;;;;;;;;;5095756;28;20393;-84
2021/12/31 08:24:47;;;;;;;;;;;;;;;;;;5096947;28;19916;-84
2021/12/31 08:27:12;;;;;;;;;;;;;;;;;;5096974;28;19916;-87
2021/12/31 08:29:38;;;;;;;;;;;;;;;;;;5096919;28;19916;-84
2021/12/31 08:32:03;;;;;;;;;;;;;;;;;;5096894;28;19916;-83
2021/12/31 08:34:29;;;;;;;;;;;;;;;;;;5097001;28;19916;-83
2021/12/31 08:36:54;;;;;;;;;;;;;;;;;;5096691;28;19916;-85
2021/12/31 08:39:20;;;;;;;;;;;;;;;;;;5096725;28;19923;-84
2021/12/31 08:41:45;;;;;;;;;;;;;;;;;;5096983;28;19965;-86
2021/12/31 08:44:10;;;;;;;;;;;;;;;;;;5095450;28;19917;-84
2021/12/31 08:46:36;;;;;;;;;;;;;;;;;;5096677;28;20378;-84
2021/12/31 08:49:02;;;;;;;;;;;;;;;;;;5095821;28;19916;-87
2021/12/31 08:51:28;;;;;;;;;;;;;;;;;;5096538;28;20003;-84
2021/12/31 08:53:54;;;;;;;;;;;;;;;;;;5096452;28;20324;-85
2021/12/31 08:56:19;;;;;;;;;;;;;;;;;;5096252;28;19916;-86
2021/12/31 08:58:45;;;;;;;;;;;;;;;;;;5096248;28;20298;-86
2021/12/31 09:01:10;;;;;;;;;;;;;;;;;;5096259;28;19968;-86
2021/12/31 09:03:35;;;;;;;;;;;;;;;;;;5096276;28;19965;-86
2021/12/31 09:06:01;;;;;;;;;;;;;;;;;;5096452;28;19969;-91
2021/12/31 09:08:29;;;;;;;;;;;;;;;;;;5096387;28;19916;-83
2021/12/31 09:10:55;;;;;;;;;;;;;;;;;;5096103;28;19923;-83
2021/12/31 09:13:20;;;;;;;;;;;;;;;;;;5096027;28;20326;-84
2021/12/31 09:15:47;;;;;;;;;;;;;;;;;;5096007;28;20280;-86
2021/12/31 09:18:13;;;;;;;;;;;;;;;;;;5096028;28;20018;-87
2021/12/31 09:20:39;;;;;;;;;;;;;;;;;;5094652;28;19916;-86
2021/12/31 09:23:05;;;;;;;;;;;;;;;;;;5096131;28;20268;-86
2021/12/31 09:25:30;;;;;;;;;;;;;;;;;;5095681;28;19976;-86
2021/12/31 09:27:56;;;;;;;;;;;;;;;;;;5095765;28;19923;-86
2021/12/31 09:30:21;;;;;;;;;;;;;;;;;;5095905;28;19916;-84
2021/12/31 09:32:47;;;;;;;;;;;;;;;;;;5095624;28;19916;-84
2021/12/31 09:35:12;;;;;;;;;;;;;;;;;;5095603;28;19966;-89
2021/12/31 09:37:38;;;;;;;;;;;;;;;;;;5095859;28;19916;-84
2021/12/31 09:40:04;;;;;;;;;;;;;;;;;;5095627;28;20287;-85
2021/12/31 09:42:30;;;;;;;;;;;;;;;;;;5095500;28;20007;-85
2021/12/31 09:44:55;;;;;;;;;;;;;;;;;;5095287;28;19920;-83
2021/12/31 09:47:20;;;;;;;;;;;;;;;;;;5095429;28;20010;-83
2021/12/31 09:49:47;;;;;;;;;;;;;;;;;;5095401;28;19989;-84
2021/12/31 09:52:13;;;;;;;;;;;;;;;;;;5095316;28;20433;-84
2021/12/31 09:54:40;;;;;;;;;;;;;;;;;;5095294;28;19967;-83
2021/12/31 09:57:10;;;;;;;;;;;;;;;;;;5095492;28;19942;-84
2021/12/31 09:59:40;;;;;;;;;;;;;;;;;;5094862;28;19924;-86
2021/12/31 10:02:05;;;;;;;;;;;;;;;;;;5094146;28;19920;-84
2021/12/31 10:04:49;;;;;;;;;;;;;;;;;;5095165;28;19939;-85
2021/12/31 10:07:20;;;;;;;;;;;;;;;;;;5094945;28;19959;-87
2021/12/31 10:10:01;;;;;;;;;;;;;;;;;;5095036;28;19974;-84
2021/12/31 10:12:42;;;;;;;;;;;;;;;;;;5093624;28;20298;-85
2021/12/31 10:15:07;;;;;;;;;;;;;;;;;;5093591;28;19916;-85
2021/12/31 10:17:33;;;;;;;;;;;;;;;;;;5094746;28;19916;-86
2021/12/31 10:20:00;;;;;;;;;;;;;;;;;;5094836;28;19997;-83
2021/12/31 10:22:25;;;;;;;;;;;;;;;;;;5094738;28;20307;-84
2021/12/31 10:24:51;;;;;;;;;;;;;;;;;;5094692;28;19916;-86
2021/12/31 10:27:19;;;;;;;;;;;;;;;;;;5095406;28;19920;-83
2021/12/31 10:29:58;;;;;;;;;;;;;;;;;;5094639;28;20303;-85
2021/12/31 10:32:25;;;;;;;;;;;;;;;;;;5094607;28;19916;-85
2021/12/31 10:34:50;;;;;;;;;;;;;;;;;;5094507;28;19939;-88
2021/12/31 10:37:18;;;;;;;;;;;;;;;;;;5094679;28;20363;-84
2021/12/31 10:39:44;;;;;;;;;;;;;;;;;;5094784;28;19915;-86
2021/12/31 10:42:12;;;;;;;;;;;;;;;;;;5093181;28;19961;-85
2021/12/31 10:44:48;;;;;;;;;;;;;;;;;;5094350;28;19955;-83
2021/12/31 10:47:18;;;;;;;;;;;;;;;;;;5094745;28;19966;-85
2021/12/31 10:50:02;;;;;;;;;;;;;;;;;;5094360;28;19912;-90
2021/12/31 10:52:34;;;;;;;;;;;;;;;;;;5093976;28;19916;-85
2021/12/31 10:55:02;;;;;;;;;;;;;;;;;;5094203;28;19916;-83
2021/12/31 10:57:35;;;;;;;;;;;;;;;;;;5094334;28;19942;-84
2021/12/31 11:00:00;;;;;;;;;;;;;;;;;;5094182;28;19923;-90
2021/12/31 11:02:26;;;;;;;;;;;;;;;;;;5094141;28;19920;-86
2021/12/31 11:04:51;;;;;;;;;;;;;;;;;;5094029;28;19923;-86
2021/12/31 11:07:17;;;;;;;;;;;;;;;;;;5094064;28;19955;-87
2021/12/31 11:09:43;;;;;;;;;;;;;;;;;;5092866;28;19916;-87
2021/12/31 11:12:10;;;;;;;;;;;;;;;;;;5093838;28;19962;-86
2021/12/31 11:14:36;;;;;;;;;;;;;;;;;;5092498;28;20375;-86
2021/12/31 11:17:02;;;;;;;;;;;;;;;;;;5094013;28;19917;-87
2021/12/31 11:19:27;;;;;;;;;;;;;;;;;;5093955;28;19923;-88
2021/12/31 11:21:53;;;;;;;;;;;;;;;;;;5093916;28;20019;-92
2021/12/31 11:24:30;;;;;;;;;;;;;;;;;;5092608;28;19944;-90
2021/12/31 11:27:15;;;;;;;;;;;;;;;;;;5093899;28;19920;-88
2021/12/31 11:29:40;;;;;;;;;;;;;;;;;;5093812;28;20007;-92
2021/12/31 11:32:06;;;;;;;;;;;;;;;;;;5093864;28;20028;-85
2021/12/31 11:34:31;;;;;;;;;;;;;;;;;;5093967;28;19917;-92
2021/12/31 11:36:57;;;;;;;;;;;;;;;;;;5093798;28;20317;-91
2021/12/31 11:39:28;;;;;;;;;;;;;;;;;;5092747;28;19916;-86
2021/12/31 11:41:55;;;;;;;;;;;;;;;;;;5093721;28;19947;-87
2021/12/31 11:44:23;;;;;;;;;;;;;;;;;;5093761;28;20021;-84
2021/12/31 11:46:49;;;;;;;;;;;;;;;;;;5093601;28;19917;-87
2021/12/31 11:49:19;;;;;;;;;;;;;;;;;;5093676;28;19916;-86
2021/12/31 11:52:08;;;;;;;;;;;;;;;;;;5093996;28;19916;-88
2021/12/31 11:54:37;;;;;;;;;;;;;;;;;;5093704;28;20343;-86
2021/12/31 11:57:04;;;;;;;;;;;;;;;;;;5093676;28;20328;-84
2021/12/31 11:59:30;;;;;;;;;;;;;;;;;;5093580;28;20330;-86
2021/12/31 12:02:09;;;;;;;;;;;;;;;;;;5093580;28;20023;-87
2021/12/31 12:05:07;;;;;;;;;;;;;;;;;;5093597;28;19963;-88
2021/12/31 12:07:46;;;;;;;;;;;;;;;;;;5077767;28;20394;-86
2021/12/31 12:10:17;;;;;;;;;;;;;;;;;;5093447;28;19916;-86
2021/12/31 12:12:48;;;;;;;;;;;;;;;;;;5093677;28;19923;-92
2021/12/31 12:15:14;;;;;;;;;;;;;;;;;;5093488;28;19916;-87
2021/12/31 12:17:43;;;;;;;;;;;;;;;;;;5093474;28;19962;-87
2021/12/31 12:20:11;;;;;;;;;;;;;;;;;;5093798;28;19912;-85
2021/12/31 12:22:39;;;;;;;;;;;;;;;;;;5093380;28;19920;-85
2021/12/31 12:25:12;;;;;;;;;;;;;;;;;;5095227;28;19985;-86
2021/12/31 12:27:38;;;;;;;;;;;;;;;;;;5097011;28;20375;-85
2021/12/31 12:30:05;;;;;;;;;;;;;;;;;;5097258;28;20413;-85
2021/12/31 12:32:35;;;;;;;;;;;;;;;;;;5096899;28;19965;-85
2021/12/31 12:35:14;;;;;;;;;;;;;;;;;;5097431;28;20299;-84
2021/12/31 12:37:40;;;;;;;;;;;;;;;;;;5096823;28;20011;-86
2021/12/31 12:40:06;;;;;;;;;;;;;;;;;;5097111;28;19942;-84
2021/12/31 12:42:32;;;;;;;;;;;;;;;;;;5097020;28;19917;-84
2021/12/31 12:45:01;;;;;;;;;;;;;;;;;;5096603;28;19916;-83
2021/12/31 12:47:27;;;;;;;;;;;;;;;;;;5096711;28;20295;-87
2021/12/31 12:49:56;;;;;;;;;;;;;;;;;;5096589;28;19916;-86
2021/12/31 12:52:21;;;;;;;;;;;;;;;;;;5096657;28;19923;-91
2021/12/31 12:54:47;;;;;;;;;;;;;;;;;;5095168;28;19916;-86
2021/12/31 12:57:23;;;;;;;;;;;;;;;;;;5096399;28;20349;-87
2021/12/31 12:59:48;;;;;;;;;;;;;;;;;;5096216;28;19920;-86
2021/12/31 13:02:14;;;;;;;;;;;;;;;;;;5096873;28;19923;-92
2021/12/31 13:04:39;;;;;;;;;;;;;;;;;;5099480;28;20458;-84
2021/12/31 13:07:07;;;;;;;;;;;;;;;;;;5096224;28;19942;-85
2021/12/31 13:09:33;;;;;;;;;;;;;;;;;;5096278;28;19993;-85
2021/12/31 13:12:02;;;;;;;;;;;;;;;;;;5096264;28;19916;-86
2021/12/31 13:14:35;;;;;;;;;;;;;;;;;;5096040;28;20385;-85
2021/12/31 13:17:02;;;;;;;;;;;;;;;;;;5095998;28;20394;-85
2021/12/31 13:19:28;;;;;;;;;;;;;;;;;;5095979;28;20395;-91
2021/12/31 13:22:07;;;;;;;;;;;;;;;;;;5095915;28;19916;-92
2021/12/31 13:24:33;;;;;;;;;;;;;;;;;;5095942;28;19922;-86
2021/12/31 13:27:05;;;;;;;;;;;;;;;;;;5095789;28;20294;-90
2021/12/31 13:29:34;;;;;;;;;;;;;;;;;;5097799;28;20288;-89
2021/12/31 13:32:07;;;;;;;;;;;;;;;;;;5094891;28;19926;-87
2021/12/31 13:34:41;;;;;;;;;;;;;;;;;;5095683;28;19916;-86
2021/12/31 13:37:07;;;;;;;;;;;;;;;;;;5095557;28;19916;-87
2021/12/31 13:39:38;;;;;;;;;;;;;;;;;;5096262;28;19935;-90
2021/12/31 13:42:05;;;;;;;;;;;;;;;;;;5103039;28;19923;-91
2021/12/31 13:44:32;;;;;;;;;;;;;;;;;;5097468;28;19965;-91
2021/12/31 13:47:02;;;;;;;;;;;;;;;;;;5095511;28;20260;-89
2021/12/31 13:49:31;;;;;;;;;;;;;;;;;;5093541;28;19916;-90
2021/12/31 13:51:57;;;;;;;;;;;;;;;;;;5095462;28;19922;-87
2021/12/31 13:54:38;;;;;;;;;;;;;;;;;;5095228;28;20002;-86
2021/12/31 13:57:04;;;;;;;;;;;;;;;;;;5095252;28;19923;-92
2021/12/31 13:59:39;;;;;;;;;;;;;;;;;;5093831;28;19919;-93
2021/12/31 14:02:10;;;;;;;;;;;;;;;;;;5095214;28;19942;-87
2021/12/31 14:04:53;;;;;;;;;;;;;;;;;;5095602;28;20299;-87
2021/12/31 14:07:21;;;;;;;;;;;;;;;;;;5095051;28;20005;-89
2021/12/31 14:09:47;;;;;;;;;;;;;;;;;;5095159;28;19920;-86
2021/12/31 14:12:13;;;;;;;;;;;;;;;;;;5094157;28;20011;-88
2021/12/31 14:14:42;;;;;;;;;;;;;;;;;;5094923;28;20007;-94
2021/12/31 14:17:11;;;;;;;;;;;;;;;;;;5094939;28;19916;-91
2021/12/31 14:19:39;;;;;;;;;;;;;;;;;;5093855;28;19964;-85
2021/12/31 14:22:05;;;;;;;;;;;;;;;;;;5093118;28;20291;-86
2021/12/31 14:24:31;;;;;;;;;;;;;;;;;;5095511;28;19916;-84
2021/12/31 14:26:57;;;;;;;;;;;;;;;;;;5094939;28;20022;-85
2021/12/31 14:29:22;;;;;;;;;;;;;;;;;;5094013;28;19920;-86
2021/12/31 14:31:48;;;;;;;;;;;;;;;;;;5094531;28;19916;-86
2021/12/31 14:34:15;;;;;;;;;;;;;;;;;;5093766;28;19965;-86
2021/12/31 14:36:52;;;;;;;;;;;;;;;;;;5094404;28;19923;-90
2021/12/31 14:39:20;;;;;;;;;;;;;;;;;;5076671;28;20362;-90
2021/12/31 14:41:45;;;;;;;;;;;;;;;;;;5092751;28;21646;-90
2021/12/31 14:44:11;;;;;;;;;;;;;;;;;;5087957;28;19928;-89
2021/12/31 14:46:36;;;;;;;;;;;;;;;;;;5075826;28;19924;-86
2021/12/31 14:49:02;;;;;;;;;;;;;;;;;;5087798;28;19920;-86
2021/12/31 14:51:28;;;;;;;;;;;;;;;;;;5089369;28;20024;-86
2021/12/31 14:53:53;;;;;;;;;;;;;;;;;;5091040;28;19965;-85
2021/12/31 14:56:22;;;;;;;;;;;;;;;;;;5092450;28;19951;-86
2021/12/31 14:58:47;;;;;;;;;;;;;;;;;;5075676;28;20368;-85
2021/12/31 15:01:15;;;;;;;;;;;;;;;;;;5073647;28;19924;-86
2021/12/31 15:03:40;;;;;;;;;;;;;;;;;;5073929;28;19917;-86
2021/12/31 15:06:07;;;;;;;;;;;;;;;;;;5073862;28;20024;-85
2021/12/31 15:08:32;;;;;;;;;;;;;;;;;;5074674;28;19920;-86
2021/12/31 15:10:58;;;;;;;;;;;;;;;;;;5075513;28;19985;-84
2021/12/31 15:13:23;;;;;;;;;;;;;;;;;;5075333;28;20334;-84
2021/12/31 15:15:49;;;;;;;;;;;;;;;;;;5074735;28;19901;-91
2021/12/31 15:18:14;;;;;;;;;;;;;;;;;;5074258;28;20422;-84
2021/12/31 15:20:39;;;;;;;;;;;;;;;;;;5073953;28;19928;-85
2021/12/31 15:23:05;;;;;;;;;;;;;;;;;;5074121;28;19924;-92
2021/12/31 15:25:30;;;;;;;;;;;;;;;;;;5073973;28;19948;-89
2021/12/31 15:27:56;;;;;;;;;;;;;;;;;;5073992;28;19959;-91
2021/12/31 15:30:21;;;;;;;;;;;;;;;;;;5073957;28;19920;-85
2021/12/31 15:32:46;;;;;;;;;;;;;;;;;;5073760;28;19951;-89
2021/12/31 15:35:12;;;;;;;;;;;;;;;;;;5073634;28;19924;-82
2021/12/31 15:37:37;;;;;;;;;;;;;;;;;;5073770;28;19954;-84
2021/12/31 15:40:04;;;;;;;;;;;;;;;;;;5072329;28;19917;-87
2021/12/31 15:42:29;;;;;;;;;;;;;;;;;;5073528;28;19939;-83
2021/12/31 15:44:55;;;;;;;;;;;;;;;;;;5073583;28;20426;-87
2021/12/31 15:47:20;;;;;;;;;;;;;;;;;;5070032;28;20296;-90
2021/12/31 15:49:46;;;;;;;;;;;;;;;;;;5062499;28;19928;-82
2021/12/31 15:52:11;;;;;;;;;;;;;;;;;;5053520;28;20051;-84
2021/12/31 15:54:37;;;;;;;;;;;;;;;;;;5053661;28;19917;-83
2021/12/31 15:57:02;;;;;;;;;;;;;;;;;;5053758;28;19917;-89
2021/12/31 15:59:28;;;;;;;;;;;;;;;;;;5080905;28;19920;-83
2021/12/31 16:01:54;;;;;;;;;;;;;;;;;;5079773;28;19917;-85
2021/12/31 16:04:20;;;;;;;;;;;;;;;;;;5077613;28;19916;-85
2021/12/31 16:06:46;;;;;;;;;;;;;;;;;;5077299;28;19917;-85
2021/12/31 16:09:11;;;;;;;;;;;;;;;;;;5079981;28;19921;-85
2021/12/31 16:11:37;;;;;;;;;;;;;;;;;;5088271;28;19927;-88
2021/12/31 16:14:02;;;;;;;;;;;;;;;;;;5085906;28;19916;-86
2021/12/31 16:16:28;;;;;;;;;;;;;;;;;;5083397;28;20015;-84
2021/12/31 16:18:54;;;;;;;;;;;;;;;;;;5081953;28;20367;-89
2021/12/31 16:21:19;;;;;;;;;;;;;;;;;;5076909;28;19912;-85
2021/12/31 16:23:45;;;;;;;;;;;;;;;;;;5081395;28;19920;-84
2021/12/31 16:26:11;;;;;;;;;;;;;;;;;;5088188;28;19923;-82
2021/12/31 16:28:38;;;;;;;;;;;;;;;;;;5077285;28;19916;-88
2021/12/31 16:31:04;;;;;;;;;;;;;;;;;;5080245;28;20284;-87
2021/12/31 16:33:31;;;;;;;;;;;;;;;;;;5085130;28;19913;-83
2021/12/31 16:35:57;;;;;;;;;;;;;;;;;;5085630;28;19931;-86
2021/12/31 16:38:22;;;;;;;;;;;;;;;;;;5084768;28;19921;-83
2021/12/31 16:40:48;;;;;;;;;;;;;;;;;;5080670;28;19966;-83
2021/12/31 16:43:14;;;;;;;;;;;;;;;;;;5087488;28;19916;-87
2021/12/31 16:45:40;;;;;;;;;;;;;;;;;;5081123;28;19920;-82
2021/12/31 16:48:05;;;;;;;;;;;;;;;;;;5085864;28;19920;-83